METAR Data
IDs: Format: Raw Decoded Include TAF

Data at: 2229 UTC 10 May 2021

K33V 102215Z AUTO 12004KT 10SM SCT007 SCT031 BKN044 01/M01 A3004 RMK AO2 T00131012
K33V 102155Z AUTO 11008KT 10SM CLR 02/00 A3003 RMK AO2 T00171005
K33V 102135Z AUTO 09009KT 10SM SCT005 SCT036 SCT060 01/00 A3003 RMK AO2 T00131005
K33V 102115Z AUTO 10009KT 4SM SCT005 BKN009 OVC039 01/00 A3002 RMK AO2 T00130000
K33V 102055Z AUTO 10009KT 1 1/4SM BKN011 OVC019 01/00 A3003 RMK AO2 T00131005
K33V 102035Z AUTO 07007KT 2SM SCT017 OVC021 01/M01 A3003 RMK AO2 T00131007
K33V 102015Z AUTO 03009KT 10SM SCT020 BKN026 OVC050 00/M01 A3002 RMK AO2 T00011012
K33V 101955Z AUTO 03014KT 2 1/2SM SCT004 BKN044 OVC050 00/M01 A3002 RMK AO2 T00011012
K33V 101935Z AUTO 35015G22KT 1SM OVC004 01/00 A3002 RMK AO2 T00131002
K33V 101915Z AUTO 34019G23KT 1 3/4SM SCT008 BKN018 OVC029 01/M01 A3002 RMK AO2 T00131010
K33V 101855Z AUTO 31016G20KT 7SM SCT008 BKN017 OVC038 01/M02 A3003 RMK AO2 T00131016
K33V 101835Z AUTO 27008KT 10SM SCT031 BKN037 BKN045 04/M04 A3001 RMK AO2 T00431041
K33V 101815Z AUTO 15003KT 10SM SCT021 BKN031 BKN039 06/M03 A3000 RMK AO2 T00551032
K33V 101755Z AUTO 00000KT 10SM SCT017 BKN021 OVC095 06/M01 A3002 RMK AO2 T00551013 10055 21013
K33V 101735Z AUTO 20003KT 10SM BKN016 BKN022 OVC095 04/M01 A3003 RMK AO2 T00411015
K33V 101715Z AUTO 00000KT 10SM SCT016 SCT022 BKN095 03/M02 A3003 RMK AO2 T00271016
K33V 101655Z AUTO 33004KT 10SM SCT016 OVC022 03/M01 A3004 RMK AO2 T00271010
K33V 101635Z AUTO 00000KT 10SM OVC022 02/M02 A3004 RMK AO2 T00201024
K33V 101615Z AUTO 00000KT 10SM SCT010 OVC024 01/M02 A3005 RMK AO2 T00131021
K33V 101555Z AUTO 00000KT 10SM BKN010 BKN024 OVC080 01/M02 A3005 RMK AO2 T00131017
K33V 101535Z AUTO 00000KT 10SM SCT031 SCT049 BKN080 01/M01 A3005 RMK AO2 T00131010
K33V 101515Z AUTO 00000KT 10SM BKN033 BKN060 OVC080 00/M02 A3005 RMK AO2 T00001020
K33V 101455Z AUTO 00000KT 10SM BKN033 OVC047 00/M02 A3005 RMK AO2 T00001016
K33V 101435Z AUTO 00000KT 10SM SCT041 OVC047 00/M02 A3005 RMK AO2 T10021019
K33V 101415Z AUTO 00000KT 10SM SCT003 SCT032 OVC045 00/M02 A3006 RMK AO2 T10051023
K33V 101355Z AUTO 00000KT 10SM OVC032 M01/M02 A3005 RMK AO2 T10061021
K33V 101335Z AUTO 03003KT 10SM BKN034 BKN040 OVC048 M01/M02 A3005 RMK AO2 T10111024
K33V 101315Z AUTO 03003KT 10SM OVC034 M01/M02 A3005 RMK AO2 T10131025
K33V 101255Z AUTO 00000KT 2 1/2SM SCT005 SCT012 OVC036 M01/M02 A3005 RMK AO2 VIS 1 1/2V4 T10131025
K33V 101235Z AUTO 00000KT 3/4SM OVC005 M01/M03 A3005 RMK AO2 T10131026
K33V 101215Z AUTO 31003KT 1/2SM OVC003 M01/M03 A3005 RMK AO2 T10131027
K33V 101155Z AUTO 31003KT 2 1/2SM SCT020 BKN025 OVC041 M01/M03 A3005 RMK AO2 T10131032 11011 21027
K33V 101135Z AUTO 00000KT 5SM SCT024 SCT032 OVC044 M01/M03 A3005 RMK AO2 T10121030
K33V 101115Z AUTO 09003KT 3SM SCT016 BKN025 OVC048 M01/M03 A3005 RMK AO2 T10131031
K33V 101055Z AUTO 12005KT 7SM BKN023 BKN033 OVC055 M01/M03 A3005 RMK AO2 T10131033
K33V 101035Z AUTO 13004KT 10SM SCT025 SCT035 OVC055 M02/M04 A3006 RMK AO2 T10211039
K33V 101015Z AUTO 12003KT 10SM BKN055 OVC070 M01/M04 A3006 RMK AO2 T10151038
K33V 100955Z AUTO 00000KT 10SM SCT030 SCT065 BKN090 M02/M05 A3006 RMK AO2 T10251048
K33V 100935Z AUTO 00000KT 10SM BKN075 M03/M05 A3007 RMK AO2 T10271048
K33V 100915Z AUTO 00000KT 10SM BKN075 M01/M03 A3006 RMK AO2 T10131035
K33V 100855Z AUTO 00000KT 10SM CLR M01/M03 A3007 RMK AO2 T10131033
K33V 100835Z AUTO 00000KT 10SM CLR M01/M03 A3007 RMK AO2 T10131035
K33V 100815Z AUTO 00000KT 10SM CLR M01/M04 A3007 RMK AO2 T10131036
K33V 100755Z AUTO 06004KT 10SM CLR M03/M05 A3008 RMK AO2 T10271050
K33V 100735Z AUTO 00000KT 10SM CLR M01/M04 A3009 RMK AO2 T10131038
K33V 100715Z AUTO 12003KT 10SM CLR M01/M04 A3009 RMK AO2 T10131036
K33V 100655Z AUTO 08003KT 10SM CLR M01/M04 A3010 RMK AO2 T10131036
K33V 100635Z AUTO 11003KT 10SM CLR M01/M04 A3010 RMK AO2 T10131037
K33V 100615Z AUTO 13004KT 10SM CLR M01/M04 A3010 RMK AO2 T10131037
K33V 100555Z AUTO 13004KT 10SM CLR M01/M04 A3010 RMK AO2 T10131037 10061 21013
K33V 100535Z AUTO 14005KT 10SM CLR M01/M04 A3010 RMK AO2 T10111037
K33V 100515Z AUTO 13005KT 10SM CLR 00/M03 A3011 RMK AO2 T10031031
K33V 100455Z AUTO 12003KT 10SM SCT013 SCT075 00/M03 A3011 RMK AO2 T10041029
K33V 100435Z AUTO 12004KT 7SM BKN013 BKN018 BKN025 00/M02 A3011 RMK AO2 T00001025
K33V 100415Z AUTO 12008KT 4SM SCT016 BKN028 OVC035 01/M03 A3011 RMK AO2 T00061027
K33V 100355Z AUTO 09013G17KT 10SM SCT026 BKN031 OVC050 01/M04 A3011 RMK AO2 T00131036 400971062
K33V 100335Z AUTO 05016G21KT 10SM SCT038 SCT047 OVC055 03/M06 A3009 RMK AO2 T00251057
K33V 100315Z AUTO 34010KT 10SM SCT047 OVC055 04/M08 A3009 RMK AO2 T00411083
K33V 100255Z AUTO 20006KT 10SM SCT032 SCT041 OVC065 04/M08 A3008 RMK AO2 T00411084
K33V 100235Z AUTO 00000KT 10SM SCT036 BKN060 OVC065 04/M10 A3007 RMK AO2 T00411100
K33V 100215Z AUTO 00000KT 10SM SCT045 BKN060 04/M10 A3007 RMK AO2 T00411105
K33V 100155Z AUTO 04007KT 10SM SCT050 BKN060 04/M11 A3006 RMK AO2 T00431110
K33V 100135Z AUTO 36005KT 10SM SCT060 BKN070 05/M12 A3006 RMK AO2 T00481118
K33V 100115Z AUTO 34005KT 10SM BKN070 BKN080 BKN100 05/M12 A3005 RMK AO2 T00481116
K33V 100055Z AUTO 27007KT 10SM CLR 06/M11 A3004 RMK AO2 T00551115
K33V 100035Z AUTO 27010KT 10SM SCT120 06/M12 A3004 RMK AO2 T00551117
K33V 100015Z AUTO 28012KT 10SM SCT110 06/M12 A3003 RMK AO2 T00571118
K33V 092355Z AUTO 30011G18KT 10SM SCT110 06/M11 A3003 RMK AO2 T00621115 10097 20057
K33V 092335Z AUTO 31005KT 10SM CLR 07/M13 A3003 RMK AO2 T00661135
K33V 092315Z AUTO 31009KT 10SM SCT075 SCT090 07/M13 A3003 RMK AO2 T00701126
K33V 092255Z AUTO 29008G17KT 10SM SCT075 BKN090 BKN110 08/M13 A3002 RMK AO2 T00801131
K33V 092235Z AUTO 29012G18KT 10SM BKN090 08/M13 A3002 RMK AO2 T00831130
K33V 092215Z AUTO 27008G18KT 10SM SCT095 09/M15 A3002 RMK AO2 T00871151
K33V 092155Z AUTO 24014G17KT 10SM SCT095 10/M15 A3002 RMK AO2 T00971154
K33V 092135Z AUTO 24014G19KT 10SM CLR 10/M16 A3002 RMK AO2 T00971159
K33V 092115Z AUTO 24015G21KT 10SM SCT085 09/M15 A3002 RMK AO2 T00901154
K33V 092055Z AUTO 27011G14KT 10SM BKN085 09/M13 A3002 RMK AO2 T00921134
K33V 092035Z AUTO 29007KT 10SM BKN085 08/M14 A3002 RMK AO2 T00811141
K33V 092015Z AUTO 24011G16KT 10SM BKN085 10/M15 A3003 RMK AO2 T00961147
K33V 091955Z AUTO 28005KT 10SM SCT085 08/M14 A3003 RMK AO2 T00831138
K33V 091935Z AUTO 24004G17KT 10SM SCT075 09/M14 A3004 RMK AO2 T00871144
K33V 091915Z AUTO 22007KT 10SM SCT075 SCT110 08/M14 A3004 RMK AO2 T00831139
K33V 091855Z AUTO 28012G16KT 10SM SCT075 08/M14 A3005 RMK AO2 T00841141
K33V 091835Z AUTO 16004KT 10SM SCT075 07/M14 A3005 RMK AO2 T00691142
K33V 091815Z AUTO 23009G15KT 10SM SCT075 07/M14 A3006 RMK AO2 T00691143
K33V 091755Z AUTO 29008KT 10SM SCT075 06/M15 A3006 RMK AO2 T00631148 10073 21062
K33V 091735Z AUTO 32003KT 10SM SCT075 06/M14 A3007 RMK AO2 T00551136
K33V 091715Z AUTO 22003KT 10SM CLR 05/M13 A3007 RMK AO2 T00531135
K33V 091655Z AUTO 21006KT 10SM CLR 04/M14 A3008 RMK AO2 T00431138
K33V 091635Z AUTO 23003KT 10SM CLR 04/M13 A3009 RMK AO2 T00411129
K33V 091615Z AUTO 01004KT 10SM CLR 04/M12 A3009 RMK AO2 T00381123
K33V 091555Z AUTO 00000KT 10SM CLR 03/M13 A3009 RMK AO2 T00321130
K33V 091535Z AUTO 18003KT 10SM CLR 03/M11 A3010 RMK AO2 T00271108
K33V 091515Z AUTO 22004KT 10SM CLR 02/M09 A3011 RMK AO2 T00241089
K33V 091455Z AUTO 00000KT 10SM CLR 01/M07 A3011 RMK AO2 T00131066
K33V 091435Z AUTO 19003KT 10SM CLR 00/M06 A3011 RMK AO2 T00001058
K33V 091415Z AUTO 16003KT 10SM CLR M01/M06 A3011 RMK AO2 T10121061
K33V 091355Z AUTO 13005KT 10SM CLR M01/M06 A3011 RMK AO2 T10131056
K33V 091335Z AUTO 14005KT 10SM CLR M03/M06 A3011 RMK AO2 T10271063
K33V 091315Z AUTO 12005KT 10SM CLR M03/M06 A3011 RMK AO2 T10271061
K33V 091255Z AUTO 12004KT 10SM CLR M04/M07 A3011 RMK AO2 T10401071
K33V 091235Z AUTO 11005KT 10SM CLR M04/M07 A3011 RMK AO2 T10451074
K33V 091215Z AUTO 09005KT 10SM CLR M06/M08 A3010 RMK AO2 T10581077
K33V 091155Z AUTO 13006KT 10SM CLR M06/M08 A3010 RMK AO2 T10601079 11012 21060
K33V 091135Z AUTO 13004KT 10SM CLR M06/M08 A3010 RMK AO2 T10591078
K33V 091115Z AUTO 17003KT 10SM CLR M04/M07 A3010 RMK AO2 T10421066
K33V 091055Z AUTO 18003KT 10SM CLR M04/M06 A3010 RMK AO2 T10371063
K33V 091035Z AUTO 16005KT 10SM CLR M04/M06 A3009 RMK AO2 T10411064